sensor_id;sensor_type;location;lat;lon;timestamp;P1;durP1;ratioP1;P2;durP2;ratioP2
25687;SDS011;17407;51.120;3.702;2022-08-19T05:28:05;29.88;;;16.95;;
25687;SDS011;17407;51.120;3.702;2022-08-19T05:30:31;27.23;;;16.13;;
25687;SDS011;17407;51.120;3.702;2022-08-19T05:32:57;28.67;;;14.90;;
25687;SDS011;17407;51.120;3.702;2022-08-19T05:35:23;25.42;;;14.57;;
25687;SDS011;17407;51.120;3.702;2022-08-19T05:37:48;23.63;;;15.85;;
25687;SDS011;17407;51.120;3.702;2022-08-19T05:40:14;31.10;;;15.85;;
25687;SDS011;17407;51.120;3.702;2022-08-19T05:42:40;28.23;;;16.15;;
25687;SDS011;17407;51.120;3.702;2022-08-19T05:45:06;27.02;;;16.08;;
25687;SDS011;17407;51.120;3.702;2022-08-19T05:47:32;29.58;;;17.42;;
25687;SDS011;17407;51.120;3.702;2022-08-19T05:49:58;26.88;;;17.02;;
25687;SDS011;17407;51.120;3.702;2022-08-19T05:52:26;31.63;;;17.58;;
25687;SDS011;17407;51.120;3.702;2022-08-19T05:54:53;26.98;;;16.95;;
25687;SDS011;17407;51.120;3.702;2022-08-19T05:57:20;33.85;;;18.38;;
25687;SDS011;17407;51.120;3.702;2022-08-19T05:59:45;31.73;;;17.75;;
25687;SDS011;17407;51.120;3.702;2022-08-19T06:02:13;30.42;;;17.42;;
25687;SDS011;17407;51.120;3.702;2022-08-19T06:04:39;35.63;;;19.77;;
25687;SDS011;17407;51.120;3.702;2022-08-19T06:07:07;30.15;;;18.50;;
25687;SDS011;17407;51.120;3.702;2022-08-19T06:09:33;28.35;;;18.50;;
25687;SDS011;17407;51.120;3.702;2022-08-19T06:12:00;35.28;;;19.25;;
25687;SDS011;17407;51.120;3.702;2022-08-19T06:14:28;37.17;;;18.60;;
25687;SDS011;17407;51.120;3.702;2022-08-19T06:16:56;31.60;;;18.20;;
25687;SDS011;17407;51.120;3.702;2022-08-19T06:19:23;27.58;;;18.73;;
25687;SDS011;17407;51.120;3.702;2022-08-19T06:21:54;35.10;;;18.17;;
25687;SDS011;17407;51.120;3.702;2022-08-19T06:24:21;27.10;;;18.17;;
25687;SDS011;17407;51.120;3.702;2022-08-19T06:26:49;29.30;;;18.55;;
25687;SDS011;17407;51.120;3.702;2022-08-19T06:29:17;34.45;;;19.40;;
25687;SDS011;17407;51.120;3.702;2022-08-19T06:31:46;34.38;;;19.20;;
25687;SDS011;17407;51.120;3.702;2022-08-19T06:34:57;29.00;;;18.25;;
25687;SDS011;17407;51.120;3.702;2022-08-19T07:50:31;28.52;;;20.52;;
25687;SDS011;17407;51.120;3.702;2022-08-19T07:53:41;30.35;;;20.70;;
25687;SDS011;17407;51.120;3.702;2022-08-19T07:56:51;27.40;;;20.38;;
25687;SDS011;17407;51.120;3.702;2022-08-19T08:00:00;26.52;;;19.23;;
25687;SDS011;17407;51.120;3.702;2022-08-19T08:03:09;30.40;;;18.60;;
25687;SDS011;17407;51.120;3.702;2022-08-19T08:06:18;27.25;;;18.40;;
25687;SDS011;17407;51.120;3.702;2022-08-19T08:09:33;26.23;;;17.88;;
25687;SDS011;17407;51.120;3.702;2022-08-19T08:12:44;31.95;;;17.58;;
25687;SDS011;17407;51.120;3.702;2022-08-19T08:15:54;24.10;;;16.25;;
25687;SDS011;17407;51.120;3.702;2022-08-19T08:19:04;23.65;;;15.68;;
25687;SDS011;17407;51.120;3.702;2022-08-19T08:22:15;25.58;;;15.32;;
25687;SDS011;17407;51.120;3.702;2022-08-19T08:25:39;25.75;;;14.82;;
25687;SDS011;17407;51.120;3.702;2022-08-19T08:28:48;20.05;;;15.02;;
25687;SDS011;17407;51.120;3.702;2022-08-19T08:31:57;22.23;;;15.60;;
25687;SDS011;17407;51.120;3.702;2022-08-19T08:35:08;23.83;;;13.07;;
25687;SDS011;17407;51.120;3.702;2022-08-19T08:38:18;22.23;;;12.55;;
25687;SDS011;17407;51.120;3.702;2022-08-19T08:41:39;17.30;;;11.15;;
25687;SDS011;17407;51.120;3.702;2022-08-19T08:44:59;19.80;;;11.48;;
25687;SDS011;17407;51.120;3.702;2022-08-19T09:06:38;12.50;;;9.73;;
25687;SDS011;17407;51.120;3.702;2022-08-19T09:09:50;16.65;;;11.27;;
25687;SDS011;17407;51.120;3.702;2022-08-19T09:13:07;14.50;;;10.93;;
25687;SDS011;17407;51.120;3.702;2022-08-19T09:16:17;17.85;;;11.27;;
25687;SDS011;17407;51.120;3.702;2022-08-19T09:19:28;14.88;;;10.13;;
25687;SDS011;17407;51.120;3.702;2022-08-19T09:22:39;13.57;;;9.20;;
25687;SDS011;17407;51.120;3.702;2022-08-19T09:25:48;11.10;;;7.70;;
25687;SDS011;17407;51.120;3.702;2022-08-19T09:28:58;13.10;;;7.63;;
25687;SDS011;17407;51.120;3.702;2022-08-19T09:32:08;10.93;;;7.32;;
25687;SDS011;17407;51.120;3.702;2022-08-19T09:35:18;9.93;;;7.45;;
25687;SDS011;17407;51.120;3.702;2022-08-19T09:38:28;7.65;;;6.78;;
25687;SDS011;17407;51.120;3.702;2022-08-19T09:41:38;8.82;;;7.53;;
25687;SDS011;17407;51.120;3.702;2022-08-19T09:44:48;11.95;;;8.70;;
25687;SDS011;17407;51.120;3.702;2022-08-19T09:48:11;8.60;;;6.53;;
25687;SDS011;17407;51.120;3.702;2022-08-19T09:51:24;7.05;;;5.70;;
25687;SDS011;17407;51.120;3.702;2022-08-19T09:54:34;6.97;;;6.03;;
25687;SDS011;17407;51.120;3.702;2022-08-19T09:57:44;11.50;;;8.35;;
25687;SDS011;17407;51.120;3.702;2022-08-19T10:00:56;9.20;;;7.90;;
25687;SDS011;17407;51.120;3.702;2022-08-19T10:37:07;3.13;;;2.53;;
25687;SDS011;17407;51.120;3.702;2022-08-19T10:40:17;6.15;;;3.50;;
25687;SDS011;17407;51.120;3.702;2022-08-19T10:43:26;4.55;;;2.88;;
25687;SDS011;17407;51.120;3.702;2022-08-19T13:47:11;3.55;;;3.22;;
25687;SDS011;17407;51.120;3.702;2022-08-19T13:49:38;7.32;;;3.28;;
25687;SDS011;17407;51.120;3.702;2022-08-19T13:52:04;4.32;;;3.50;;
25687;SDS011;17407;51.120;3.702;2022-08-19T13:54:30;7.40;;;2.95;;
25687;SDS011;17407;51.120;3.702;2022-08-19T13:56:56;5.50;;;3.08;;
25687;SDS011;17407;51.120;3.702;2022-08-19T14:58:14;7.75;;;6.43;;
25687;SDS011;17407;51.120;3.702;2022-08-19T15:01:24;8.60;;;6.65;;
25687;SDS011;17407;51.120;3.702;2022-08-19T15:04:34;10.07;;;7.22;;
25687;SDS011;17407;51.120;3.702;2022-08-19T15:07:43;8.52;;;6.75;;
25687;SDS011;17407;51.120;3.702;2022-08-19T15:10:53;7.85;;;6.35;;
25687;SDS011;17407;51.120;3.702;2022-08-19T15:14:03;9.98;;;6.18;;
25687;SDS011;17407;51.120;3.702;2022-08-19T15:17:13;9.10;;;5.95;;
25687;SDS011;17407;51.120;3.702;2022-08-19T15:20:22;7.03;;;6.05;;
25687;SDS011;17407;51.120;3.702;2022-08-19T15:23:32;9.30;;;5.38;;
25687;SDS011;17407;51.120;3.702;2022-08-19T15:26:43;6.22;;;5.57;;
25687;SDS011;17407;51.120;3.702;2022-08-19T15:29:52;9.48;;;5.65;;
25687;SDS011;17407;51.120;3.702;2022-08-19T15:33:01;8.50;;;5.40;;
25687;SDS011;17407;51.120;3.702;2022-08-19T15:36:10;16.70;;;5.72;;
25687;SDS011;17407;51.120;3.702;2022-08-19T15:39:20;9.75;;;5.60;;
25687;SDS011;17407;51.120;3.702;2022-08-19T15:42:30;8.48;;;5.47;;
25687;SDS011;17407;51.120;3.702;2022-08-19T15:45:39;6.18;;;5.57;;
25687;SDS011;17407;51.120;3.702;2022-08-19T15:49:02;6.07;;;4.85;;
25687;SDS011;17407;51.120;3.702;2022-08-19T15:52:12;10.57;;;5.30;;
25687;SDS011;17407;51.120;3.702;2022-08-19T15:55:25;12.60;;;5.32;;
25687;SDS011;17407;51.120;3.702;2022-08-19T15:58:35;6.40;;;5.53;;
25687;SDS011;17407;51.120;3.702;2022-08-19T16:01:44;9.23;;;5.95;;
25687;SDS011;17407;51.120;3.702;2022-08-19T16:05:21;7.15;;;5.57;;
25687;SDS011;17407;51.120;3.702;2022-08-19T16:08:31;7.00;;;5.35;;
25687;SDS011;17407;51.120;3.702;2022-08-19T16:11:40;10.75;;;5.85;;
25687;SDS011;17407;51.120;3.702;2022-08-19T16:14:50;7.03;;;5.57;;
25687;SDS011;17407;51.120;3.702;2022-08-19T16:18:00;7.35;;;5.05;;
25687;SDS011;17407;51.120;3.702;2022-08-19T16:21:10;15.13;;;5.97;;
25687;SDS011;17407;51.120;3.702;2022-08-19T16:24:21;11.52;;;5.65;;
25687;SDS011;17407;51.120;3.702;2022-08-19T16:27:31;10.93;;;6.07;;
25687;SDS011;17407;51.120;3.702;2022-08-19T16:30:40;9.10;;;5.57;;
25687;SDS011;17407;51.120;3.702;2022-08-19T16:33:50;6.05;;;5.43;;
25687;SDS011;17407;51.120;3.702;2022-08-19T16:36:59;8.13;;;5.82;;
25687;SDS011;17407;51.120;3.702;2022-08-19T16:40:08;8.90;;;6.15;;
25687;SDS011;17407;51.120;3.702;2022-08-19T16:43:21;9.63;;;6.15;;
25687;SDS011;17407;51.120;3.702;2022-08-19T16:46:31;8.73;;;6.82;;
25687;SDS011;17407;51.120;3.702;2022-08-19T16:49:17;9.25;;;5.47;;
25687;SDS011;17407;51.120;3.702;2022-08-19T18:00:48;6.22;;;3.55;;
25687;SDS011;17407;51.120;3.702;2022-08-19T18:03:58;8.20;;;3.90;;
25687;SDS011;17407;51.120;3.702;2022-08-19T18:07:08;9.20;;;3.95;;
25687;SDS011;17407;51.120;3.702;2022-08-19T18:10:19;6.32;;;4.40;;
25687;SDS011;17407;51.120;3.702;2022-08-19T18:13:42;8.10;;;3.93;;
25687;SDS011;17407;51.120;3.702;2022-08-19T18:16:52;7.72;;;4.53;;
25687;SDS011;17407;51.120;3.702;2022-08-19T18:20:03;9.18;;;4.57;;
25687;SDS011;17407;51.120;3.702;2022-08-19T18:23:13;8.60;;;4.25;;
25687;SDS011;17407;51.120;3.702;2022-08-19T18:26:22;9.68;;;4.40;;
25687;SDS011;17407;51.120;3.702;2022-08-19T18:29:31;6.50;;;4.05;;
25687;SDS011;17407;51.120;3.702;2022-08-19T18:32:41;6.78;;;4.15;;
25687;SDS011;17407;51.120;3.702;2022-08-19T18:35:51;6.63;;;4.30;;
25687;SDS011;17407;51.120;3.702;2022-08-19T18:39:00;6.90;;;4.20;;
25687;SDS011;17407;51.120;3.702;2022-08-19T18:42:12;7.38;;;4.20;;
25687;SDS011;17407;51.120;3.702;2022-08-19T18:45:22;8.65;;;5.10;;
25687;SDS011;17407;51.120;3.702;2022-08-19T18:48:46;8.63;;;4.63;;
25687;SDS011;17407;51.120;3.702;2022-08-19T18:51:56;13.57;;;5.70;;
25687;SDS011;17407;51.120;3.702;2022-08-19T18:55:06;9.38;;;5.97;;
25687;SDS011;17407;51.120;3.702;2022-08-19T19:20:00;10.75;;;5.35;;
25687;SDS011;17407;51.120;3.702;2022-08-19T19:23:09;6.70;;;5.32;;
25687;SDS011;17407;51.120;3.702;2022-08-19T19:26:18;11.02;;;5.07;;
25687;SDS011;17407;51.120;3.702;2022-08-19T19:32:56;7.13;;;3.90;;
25687;SDS011;17407;51.120;3.702;2022-08-19T19:36:06;7.22;;;3.53;;
25687;SDS011;17407;51.120;3.702;2022-08-19T19:39:17;5.18;;;3.17;;
25687;SDS011;17407;51.120;3.702;2022-08-19T19:42:26;4.80;;;3.15;;
25687;SDS011;17407;51.120;3.702;2022-08-19T19:45:35;4.53;;;3.00;;
25687;SDS011;17407;51.120;3.702;2022-08-19T19:48:59;6.28;;;3.75;;
25687;SDS011;17407;51.120;3.702;2022-08-19T19:52:09;5.85;;;2.92;;
25687;SDS011;17407;51.120;3.702;2022-08-19T19:55:19;5.35;;;3.45;;
25687;SDS011;17407;51.120;3.702;2022-08-19T19:58:28;4.07;;;3.08;;
25687;SDS011;17407;51.120;3.702;2022-08-19T20:01:38;5.72;;;2.88;;
25687;SDS011;17407;51.120;3.702;2022-08-19T20:04:49;4.03;;;2.78;;
25687;SDS011;17407;51.120;3.702;2022-08-19T20:07:59;4.25;;;2.70;;
25687;SDS011;17407;51.120;3.702;2022-08-19T20:11:09;5.20;;;2.90;;
25687;SDS011;17407;51.120;3.702;2022-08-19T20:14:26;4.97;;;2.97;;
25687;SDS011;17407;51.120;3.702;2022-08-19T20:35:37;4.78;;;2.53;;
25687;SDS011;17407;51.120;3.702;2022-08-19T20:38:47;4.63;;;2.75;;
25687;SDS011;17407;51.120;3.702;2022-08-19T20:41:57;2.50;;;2.30;;
25687;SDS011;17407;51.120;3.702;2022-08-19T20:45:08;7.55;;;2.85;;
25687;SDS011;17407;51.120;3.702;2022-08-19T20:48:31;2.90;;;2.60;;
25687;SDS011;17407;51.120;3.702;2022-08-19T20:51:40;5.45;;;2.92;;
25687;SDS011;17407;51.120;3.702;2022-08-19T20:54:50;3.80;;;2.50;;
25687;SDS011;17407;51.120;3.702;2022-08-19T20:58:00;4.60;;;2.70;;
25687;SDS011;17407;51.120;3.702;2022-08-19T21:01:10;3.17;;;2.88;;
25687;SDS011;17407;51.120;3.702;2022-08-19T21:04:20;2.95;;;2.65;;
25687;SDS011;17407;51.120;3.702;2022-08-19T21:07:29;3.88;;;3.13;;
25687;SDS011;17407;51.120;3.702;2022-08-19T21:10:39;4.13;;;3.47;;
25687;SDS011;17407;51.120;3.702;2022-08-19T21:13:49;3.17;;;2.92;;
25687;SDS011;17407;51.120;3.702;2022-08-19T21:16:58;4.25;;;3.60;;
25687;SDS011;17407;51.120;3.702;2022-08-19T21:20:07;4.07;;;3.67;;
25687;SDS011;17407;51.120;3.702;2022-08-19T21:23:21;5.38;;;4.20;;
25687;SDS011;17407;51.120;3.702;2022-08-19T21:26:31;10.60;;;4.28;;
25687;SDS011;17407;51.120;3.702;2022-08-19T21:29:40;5.85;;;4.65;;
25687;SDS011;17407;51.120;3.702;2022-08-19T21:51:05;9.52;;;5.57;;
25687;SDS011;17407;51.120;3.702;2022-08-19T21:54:14;7.80;;;6.35;;
25687;SDS011;17407;51.120;3.702;2022-08-19T21:57:23;11.05;;;5.60;;
25687;SDS011;17407;51.120;3.702;2022-08-19T22:00:33;9.07;;;5.78;;
25687;SDS011;17407;51.120;3.702;2022-08-19T22:03:42;10.52;;;5.60;;
25687;SDS011;17407;51.120;3.702;2022-08-19T22:06:51;8.45;;;5.38;;
25687;SDS011;17407;51.120;3.702;2022-08-19T22:10:02;10.55;;;6.45;;
25687;SDS011;17407;51.120;3.702;2022-08-19T22:13:11;8.73;;;6.07;;
25687;SDS011;17407;51.120;3.702;2022-08-19T22:16:22;8.68;;;5.53;;
25687;SDS011;17407;51.120;3.702;2022-08-19T22:19:31;8.20;;;5.55;;
25687;SDS011;17407;51.120;3.702;2022-08-19T22:22:45;8.27;;;5.68;;
25687;SDS011;17407;51.120;3.702;2022-08-19T22:25:55;8.45;;;5.60;;
25687;SDS011;17407;51.120;3.702;2022-08-19T22:29:04;10.27;;;5.38;;
25687;SDS011;17407;51.120;3.702;2022-08-19T22:32:13;7.72;;;4.95;;
25687;SDS011;17407;51.120;3.702;2022-08-19T22:35:24;12.82;;;5.80;;
25687;SDS011;17407;51.120;3.702;2022-08-19T22:38:33;8.70;;;5.05;;
25687;SDS011;17407;51.120;3.702;2022-08-19T22:41:43;11.73;;;5.35;;
25687;SDS011;17407;51.120;3.702;2022-08-19T22:44:55;13.82;;;4.85;;
25687;SDS011;17407;51.120;3.702;2022-08-19T23:10:20;13.25;;;5.28;;
25687;SDS011;17407;51.120;3.702;2022-08-19T23:13:29;13.20;;;5.47;;
25687;SDS011;17407;51.120;3.702;2022-08-19T23:16:39;16.45;;;5.45;;
25687;SDS011;17407;51.120;3.702;2022-08-19T23:19:49;16.75;;;5.30;;
25687;SDS011;17407;51.120;3.702;2022-08-19T23:23:00;16.23;;;5.28;;
25687;SDS011;17407;51.120;3.702;2022-08-19T23:26:10;18.88;;;5.68;;
25687;SDS011;17407;51.120;3.702;2022-08-19T23:29:20;18.30;;;6.35;;
25687;SDS011;17407;51.120;3.702;2022-08-19T23:32:33;15.98;;;4.78;;
25687;SDS011;17407;51.120;3.702;2022-08-19T23:35:42;13.00;;;5.28;;
25687;SDS011;17407;51.120;3.702;2022-08-19T23:38:51;20.50;;;5.32;;
25687;SDS011;17407;51.120;3.702;2022-08-19T23:42:00;17.50;;;4.93;;
25687;SDS011;17407;51.120;3.702;2022-08-19T23:45:09;12.35;;;5.10;;
25687;SDS011;17407;51.120;3.702;2022-08-19T23:48:33;16.90;;;4.72;;
25687;SDS011;17407;51.120;3.702;2022-08-19T23:51:43;12.45;;;5.38;;
25687;SDS011;17407;51.120;3.702;2022-08-19T23:54:53;17.90;;;5.50;;
25687;SDS011;17407;51.120;3.702;2022-08-19T23:58:03;16.10;;;5.47;;
